WetterOnline ( http://www.wetteronline.de )

Wetter aktuell Lübeck

Aktuelles Wetter: Lübeck/Blankensee (15m)

6-stündlich | Neueste Meldungen
Ortszeit Temperatur Wetter
Mo, 23.07. 2:00 14.2° C wolkenlos
So, 22.07. 20:00 23.7° C wolkenlos
So, 22.07. 14:00 28.0° C bewölkt
So, 22.07. 8:00 21.9° C leicht bewölkt
So, 22.07. 2:00 19.0° C bewölkt
Sa, 21.07. 20:00 24.4° C bewölkt
Sa, 21.07. 14:00 25.7° C leicht bewölkt
Sa, 21.07. 8:00 17.3° C leicht bewölkt
Ortszeit Temperatur Wetter
Mo, 23.07. 6:00 14.1° C wolkenlos
Mo, 23.07. 5:50 14.1° C wolkenlos
Mo, 23.07. 5:40 14.0° C wolkenlos
Mo, 23.07. 5:30 14.3° C fast wolkenlos
Mo, 23.07. 5:20 14.3° C fast wolkenlos
Mo, 23.07. 5:10 14.1° C leicht bewölkt
Mo, 23.07. 5:00 14.2° C bedeckt
Mo, 23.07. 4:30 14.2° C bedeckt
Mo, 23.07. 4:00 13.7° C leicht bewölkt
Mo, 23.07. 3:30 13.9° C fast wolkenlos
Mo, 23.07. 3:00 13.8° C wolkenlos
Ortszeit Relative Feuchte Sichtweite
Mo, 23.07. 2:00 94% 8 km
So, 22.07. 20:00 57% 17 km
So, 22.07. 14:00 39% 17 km
So, 22.07. 8:00 59% 14 km
So, 22.07. 2:00 66% 20 km
Sa, 21.07. 20:00 42% 26 km
Sa, 21.07. 14:00 38% 17 km
Sa, 21.07. 8:00 72% 18 km
Ortszeit Relative Feuchte Sichtweite
Mo, 23.07. 6:00 97% 6 km
Mo, 23.07. 5:50 97% -
Mo, 23.07. 5:40 97% -
Mo, 23.07. 5:30 96% 6 km
Mo, 23.07. 5:20 96% -
Mo, 23.07. 5:10 97% -
Mo, 23.07. 5:00 96% 7 km
Mo, 23.07. 4:30 97% 8 km
Mo, 23.07. 4:00 98% 7 km
Mo, 23.07. 3:30 97% 7 km
Mo, 23.07. 3:00 96% 9 km
Ortszeit Niederschlagsmenge Niederschlagsart
Mo, 23.07. 2:00 0.0 l/m2 in 6 Std. -
So, 22.07. 20:00 0.0 l/m2 in 12 Std. -
So, 22.07. 14:00 0.0 l/m2 in 6 Std. -
So, 22.07. 8:00 0.0 l/m2 in 12 Std. -
So, 22.07. 2:00 0.0 l/m2 in 6 Std. -
Sa, 21.07. 20:00 0.0 l/m2 in 12 Std. -
Sa, 21.07. 14:00 0.0 l/m2 in 6 Std. -
Sa, 21.07. 8:00 0.0 l/m2 in 12 Std. -
Ortszeit Niederschlagsmenge Niederschlagsart
Mo, 23.07. 6:00 0.0 l/m2 in 1 Std. -
Mo, 23.07. 5:50 keine Meldung -
Mo, 23.07. 5:40 keine Meldung -
Mo, 23.07. 5:30 0.0 l/m2 in 1 Std. -
Mo, 23.07. 5:20 keine Meldung -
Mo, 23.07. 5:10 keine Meldung -
Mo, 23.07. 5:00 0.0 l/m2 in 1 Std. -
Mo, 23.07. 4:30 0.0 l/m2 in 1 Std. -
Mo, 23.07. 4:00 0.0 l/m2 in 1 Std. -
Mo, 23.07. 3:30 0.0 l/m2 in 1 Std. -
Mo, 23.07. 3:00 0.0 l/m2 in 1 Std. -
Ortszeit Stärke Spitze Richtung
km/h Bft. km/h Grad Sektor
Mo, 23.07. 2:00 4 1 25 230° SW
So, 22.07. 20:00 13 3 35 260° W
So, 22.07. 14:00 11 2 26 300° NW
So, 22.07. 8:00 7 2 18 140° SO
So, 22.07. 2:00 4 1 14 120° SO
Sa, 21.07. 20:00 11 2 25 80° O
Sa, 21.07. 14:00 11 2 22 70° O
Sa, 21.07. 8:00 4 1 7 60° NO
Ortszeit Stärke Spitze Richtung
km/h Bft. km/h Grad Sektor
Mo, 23.07. 6:00 7 2 14 250° W
Mo, 23.07. 5:50 7 2 - 250° W
Mo, 23.07. 5:40 4 1 - 240° SW
Mo, 23.07. 5:30 7 2 14 270° W
Mo, 23.07. 5:20 7 2 - 270° W
Mo, 23.07. 5:10 7 2 - 270° W
Mo, 23.07. 5:00 6 1 11 250° W
Mo, 23.07. 4:30 4 1 11 250° W
Mo, 23.07. 4:00 4 1 11 240° SW
Mo, 23.07. 3:30 4 1 11 250° W
Mo, 23.07. 3:00 4 1 11 240° SW
Ortszeit Untergrenze Bedeckung Gattung
total tief tief mittel hoch
Mo, 23.07. 2:00 - 0/8 0/8 - - -
So, 22.07. 20:00 - 0/8 0/8 - - -
So, 22.07. 14:00 1800 m 8/8 4/8 - - -
So, 22.07. 8:00 3300 m 4/8 2/8 - - -
So, 22.07. 2:00 2400 m 7/8 7/8 - - -
Sa, 21.07. 20:00 3600 m 7/8 7/8 - - -
Sa, 21.07. 14:00 8400 m 5/8 0/8 - - -
Sa, 21.07. 8:00 2100 m 6/8 1/8 - - -
Ortszeit Bedeckungsgrad in Achtel und Wolkenuntergrenze
Mo, 23.07. 6:00 keine Wolken
Mo, 23.07. 5:50 keine Wolken
Mo, 23.07. 5:40 keine Wolken
Mo, 23.07. 5:30 1(1200m)
Mo, 23.07. 5:20 1(1200m)
Mo, 23.07. 5:10 4(1200m)
Mo, 23.07. 5:00 8(1200m)
Mo, 23.07. 4:30 8(1110m)
Mo, 23.07. 4:00 3(1080m)
Mo, 23.07. 3:30 1(960m)
Mo, 23.07. 3:00 1(990m)
Ortszeit Luftdruck NN (hPa) Tendenz (hPa in 3 Std.)
Mo, 23.07. 2:00 1015 + 0,6
So, 22.07. 20:00 1013 + 1,4
So, 22.07. 14:00 1012 + 0,2
So, 22.07. 8:00 1011 - 0,2
So, 22.07. 2:00 1012 + 0,1
Sa, 21.07. 20:00 1012 - 0,5
Sa, 21.07. 14:00 1013 - 0,9
Sa, 21.07. 8:00 1014 + 0,1
Ortszeit Luftdruck NN (hPa) Tendenz (hPa in 3 Std.)
Mo, 23.07. 6:00 1016 + 0,5
Mo, 23.07. 5:50 1016 keine Meldung
Mo, 23.07. 5:40 1016 keine Meldung
Mo, 23.07. 5:30 1016 + 0,3
Mo, 23.07. 5:20 1016 keine Meldung
Mo, 23.07. 5:10 1016 keine Meldung
Mo, 23.07. 5:00 1016 + 0,2
Mo, 23.07. 4:30 1016 + 0,2
Mo, 23.07. 4:00 1016 + 0,2
Mo, 23.07. 3:30 1016 + 0,3
Mo, 23.07. 3:00 1015 + 0,2
Ortszeit Schneehöhe (cm)
Mo, 23.07. 2:00 -
So, 22.07. 20:00 -
So, 22.07. 14:00 -
So, 22.07. 8:00 -
So, 22.07. 2:00 -
Sa, 21.07. 20:00 -
Sa, 21.07. 14:00 -
Sa, 21.07. 8:00 -
Ortszeit Schneehöhe (cm)
Mo, 23.07. 6:00 -
Mo, 23.07. 5:50 -
Mo, 23.07. 5:40 -
Mo, 23.07. 5:30 -
Mo, 23.07. 5:20 -
Mo, 23.07. 5:10 -
Mo, 23.07. 5:00 -
Mo, 23.07. 4:30 -
Mo, 23.07. 4:00 -
Mo, 23.07. 3:30 -
Mo, 23.07. 3:00 -
Link zu dieser Seite / Seite empfehlen

Das Wetter in ...